Latest Coastal Weather Observations for Noarlunga

IDS60701

Issued at 12:11 pm CDT Tuesday 20 February 2018 (issued every 10 minutes, with the page automatically refreshed every 10 minutes)

About coastal observations | Map of coastal stations | Coastal observations for SA | Marine services | Other Formats
Station Details ID: 023885 Name: NOARLUNGA Lat: -35.16 Lon: 138.51 Height: 55.0 m
Data from the previous 72 hours. | See also: Recent months at Noarlunga
Date/Time
CDT
Temp
°C
Wind Pressure Rain since
9am
mm
Weather Cloud Vis
km
Sea
Height
m
Swell
Dir  Spd
kts
Gust
kts
hPa Trend Height
m
Period
s
Dir
20/12:00pm 27.4 WNW 5 7 - - 0.0 - - - - - - -
20/11:30am 26.7 WNW 5 7 - - 0.0 - - - - - - -
20/11:00am 26.6 NW 6 9 - - 0.0 - - - - - - -
20/10:30am 27.3 ENE 6 10 - - 0.0 - - - - - - -
20/10:00am 24.9 NE 6 12 - - 0.0 - - - - - - -
20/09:30am 23.6 NE 7 11 - - 0.0 - - - - - - -
20/09:00am 23.3 ENE 12 21 - - 0.0 - - - - - - -
20/08:30am 22.5 E 10 15 - - 0.0 - - - - - - -
20/08:00am 21.9 ENE 10 16 - - 0.0 - - - - - - -
20/07:30am 21.4 ENE 10 16 - - 0.0 - - - - - - -
20/07:00am 20.4 E 11 17 - - 0.0 - - - - - - -
20/06:30am 19.9 E 12 21 - - 0.0 - - - - - - -
20/06:00am 19.8 E 16 23 - - 0.0 - - - - - - -
20/05:30am 19.5 E 15 22 - - 0.0 - - - - - - -
20/05:00am 19.0 ESE 14 21 - - 0.0 - - - - - - -
20/04:30am 19.3 ESE 15 21 - - 0.0 - - - - - - -
20/04:00am 19.4 ESE 13 21 - - 0.0 - - - - - - -
20/03:30am 19.3 ESE 14 22 - - 0.0 - - - - - - -
20/03:00am 19.1 ESE 13 20 - - 0.0 - - - - - - -
20/02:30am 19.4 ESE 15 21 - - 0.0 - - - - - - -
20/02:00am 19.3 ESE 14 21 - - 0.0 - - - - - - -
20/01:30am 19.5 ESE 15 24 - - 0.0 - - - - - - -
20/01:00am 19.5 ESE 15 21 - - 0.0 - - - - - - -
20/12:30am 19.5 ESE 15 22 - - 0.0 - - - - - - -
20/12:00am 19.2 SE 11 16 - - 0.0 - - - - - - -
 
Date/Time
CDT
Temp
°C
Wind Pressure Rain since
9am
mm
Weather Cloud Vis
km
Sea
Height
m
Swell
Dir  Spd
kts
Gust
kts
hPa Trend Height
m
Period
s
Dir
19/11:30pm 18.9 SE 8 13 - - 0.0 - - - - - - -
19/11:00pm 19.0 ESE 7 9 - - 0.0 - - - - - - -
19/10:30pm 19.1 SE 8 12 - - 0.0 - - - - - - -
19/10:00pm 18.8 SSE 5 7 - - 0.0 - - - - - - -
19/09:30pm 19.4 S 3 5 - - 0.0 - - - - - - -
19/09:00pm 20.0 SSE 3 6 - - 0.0 - - - - - - -
19/08:30pm 20.5 SSE 5 9 - - 0.0 - - - - - - -
19/08:00pm 21.4 SSE 6 8 - - 0.0 - - - - - - -
19/07:30pm 22.2 SE 12 16 - - 0.0 - - - - - - -
19/07:00pm 23.1 SSE 12 19 - - 0.0 - - - - - - -
19/06:30pm 23.5 SSE 15 23 - - 0.0 - - - - - - -
19/06:00pm 24.4 SE 13 19 - - 0.0 - - - - - - -
19/05:30pm 25.0 SE 12 16 - - 0.0 - - - - - - -
19/05:00pm 25.7 SSE 12 18 - - 0.0 - - - - - - -
19/04:30pm 25.5 SSE 13 19 - - 0.0 - - - - - - -
19/04:00pm 25.5 SSE 12 22 - - 0.0 - - - - - - -
19/03:30pm 25.3 SSE 14 20 - - 0.0 - - - - - - -
19/03:00pm 26.1 SSE 15 21 - - 0.0 - - - - - - -
19/02:30pm 24.9 SSE 12 21 - - 0.0 - - - - - - -
19/02:00pm 24.7 SE 14 19 - - 0.0 - - - - - - -
19/01:30pm 25.0 SE 12 18 - - 0.0 - - - - - - -
19/01:00pm 24.1 SE 13 20 - - 0.0 - - - - - - -
19/12:30pm 23.1 SSE 13 18 - - 0.0 - - - - - - -
19/12:00pm 22.4 SSE 13 19 - - 0.0 - - - - - - -
19/11:30am 22.2 SE 15 20 - - 0.0 - - - - - - -
19/11:00am 21.7 SE 13 20 - - 0.0 - - - - - - -
19/10:30am 21.5 SE 13 21 - - 0.0 - - - - - - -
19/10:00am 20.8 SE 15 22 - - 0.0 - - - - - - -
19/09:43am 20.1 SE 15 26 - - 0.0 - - - - - - -
19/09:30am 19.5 SE 19 27 - - 0.0 - - - - - - -
19/09:03am 19.5 SE 15 28 - - 0.0 - - - - - - -
19/09:00am 19.6 SE 13 20 - - 0.8 - - - - - - -
19/08:30am 18.9 SE 15 28 - - 0.8 - - - - - - -
19/08:29am 18.9 SE 15 28 - - 0.8 - - - - - - -
19/08:00am 18.2 ESE 12 19 - - 0.8 - - - - - - -
19/07:30am 17.6 SE 12 19 - - 0.8 - - - - - - -
19/07:00am 17.7 SE 13 21 - - 0.8 - - - - - - -
19/06:39am 17.8 SE 17 27 - - 0.8 - - - - - - -
19/06:30am 18.1 SE 15 25 - - 0.8 - - - - - - -
19/06:00am 18.4 SE 12 19 - - 0.8 - - - - - - -
19/05:30am 18.6 SE 12 17 - - 0.8 - - - - - - -
19/05:00am 18.3 SE 13 18 - - 0.8 - - - - - - -
19/04:30am 18.1 SSE 12 17 - - 0.8 - - - - - - -
19/04:00am 18.1 SE 12 15 - - 0.8 - - - - - - -
19/03:30am 18.1 SE 12 17 - - 0.8 - - - - - - -
19/03:00am 18.1 SE 13 21 - - 0.8 - - - - - - -
19/02:30am 18.3 SE 14 21 - - 0.8 - - - - - - -
19/02:00am 18.4 SE 14 21 - - 0.8 - - - - - - -
19/01:30am 18.5 SE 15 23 - - 0.8 - - - - - - -
19/01:00am 18.4 SE 14 20 - - 0.8 - - - - - - -
19/12:30am 18.2 SE 14 23 - - 0.8 - - - - - - -
19/12:00am 18.2 SE 13 19 - - 0.8 - - - - - - -
 
Date/Time
CDT
Temp
°C
Wind Pressure Rain since
9am
mm
Weather Cloud Vis
km
Sea
Height
m
Swell
Dir  Spd
kts
Gust
kts
hPa Trend Height
m
Period
s
Dir
18/11:30pm 18.5 ESE 14 21 - - 0.8 - - - - - - -
18/11:00pm 18.4 ESE 14 20 - - 0.8 - - - - - - -
18/10:30pm 18.6 SE 16 23 - - 0.8 - - - - - - -
18/10:00pm 18.8 SE 12 16 - - 0.8 - - - - - - -
18/09:30pm 18.8 SE 12 18 - - 0.8 - - - - - - -
18/09:00pm 19.2 SE 9 15 - - 0.8 - - - - - - -
18/08:30pm 19.5 SE 10 16 - - 0.8 - - - - - - -
18/08:00pm 20.3 SSE 9 13 - - 0.8 - - - - - - -
18/07:30pm 20.8 SE 9 13 - - 0.8 - - - - - - -
18/07:00pm 21.4 SSE 2 3 - - 0.8 - - - - - - -
18/06:30pm 21.4 NNW 1 2 - - 0.8 - - - - - - -
18/06:00pm 21.4 NW 2 4 - - 0.8 Recent precip. - - - - - -
18/05:30pm 22.1 NNE 2 3 - - 0.6 - - - - - - -
18/05:00pm 21.9 NNE 3 7 - - 0.6 - - - - - - -
18/04:30pm 21.3 NE 6 8 - - 0.6 - - - - - - -
18/04:00pm 20.7 ENE 5 8 - - 0.6 - - - - - - -
18/03:30pm 20.1 E 7 11 - - 0.6 - - - - - - -
18/03:00pm 19.8 ESE 7 12 - - 0.6 - - - - - - -
18/02:30pm 20.0 ESE 10 14 - - 0.6 - - - - - - -
18/02:00pm 19.6 ESE 10 15 - - 0.6 - - - - - - -
18/01:30pm 19.1 E 7 10 - - 0.6 - - - - - - -
18/01:00pm 19.0 E 9 15 - - 0.4 - - - - - - -
18/12:30pm 19.1 SE 10 13 - - 0.2 - - - - - - -
18/12:00pm 19.9 SE 10 14 - - 0.0 - - - - - - -
18/11:30am 21.8 SE 10 15 - - 0.0 - - - - - - -
18/11:00am 22.3 SE 11 15 - - 0.0 - - - - - - -
18/10:30am 24.0 SE 7 11 - - 0.0 - - - - - - -
18/10:00am 22.1 ESE 10 16 - - 0.0 - - - - - - -
18/09:30am 20.8 E 10 17 - - 0.0 - - - - - - -
18/09:00am 19.7 E 10 15 - - 0.0 - - - - - - -
18/08:30am 19.0 E 12 18 - - 0.0 - - - - - - -
18/08:00am 18.2 E 12 18 - - 0.0 - - - - - - -
18/07:30am 17.2 E 11 17 - - 0.0 - - - - - - -
18/07:00am 16.9 E 11 15 - - 0.0 - - - - - - -
18/06:30am 17.0 E 12 18 - - 0.0 - - - - - - -
18/06:00am 16.9 E 8 12 - - 0.0 - - - - - - -
18/05:30am 17.1 E 6 10 - - 0.0 - - - - - - -
18/05:00am 17.4 E 10 18 - - 0.0 - - - - - - -
18/04:30am 17.4 E 8 13 - - 0.0 - - - - - - -
18/04:00am 17.5 E 8 13 - - 0.0 - - - - - - -
18/03:30am 17.3 E 10 13 - - 0.0 - - - - - - -
18/03:00am 17.4 E 8 11 - - 0.0 - - - - - - -
18/02:30am 17.5 E 7 10 - - 0.0 - - - - - - -
18/02:00am 17.6 E 7 9 - - 0.0 - - - - - - -
18/01:30am 17.6 E 9 15 - - 0.0 - - - - - - -
18/01:00am 17.6 E 7 11 - - 0.0 - - - - - - -
18/12:30am 17.6 E 10 16 - - 0.0 - - - - - - -
18/12:00am 17.7 E 9 14 - - 0.0 - - - - - - -
 
Date/Time
CDT
Temp
°C
Wind Pressure Rain since
9am
mm
Weather Cloud Vis
km
Sea
Height
m
Swell
Dir  Spd
kts
Gust
kts
hPa Trend Height
m
Period
s
Dir
17/11:30pm 17.9 E 10 17 - - 0.0 - - - - - - -
17/11:00pm 17.8 E 9 15 - - 0.0 - - - - - - -
17/10:30pm 17.9 ESE 9 14 - - 0.0 - - - - - - -
17/10:00pm 18.2 ESE 9 15 - - 0.0 - - - - - - -
17/09:30pm 18.6 ESE 9 14 - - 0.0 - - - - - - -
17/09:00pm 19.2 SE 9 13 - - 0.0 - - - - - - -
17/08:30pm 19.9 SE 8 12 - - 0.0 - - - - - - -
17/08:00pm 21.4 SE 8 11 - - 0.0 - - - - - - -
17/07:30pm 23.3 SE 10 13 - - 0.0 - - - - - - -
17/07:00pm 23.9 SW 4 6 - - 0.0 - - - - - - -
17/06:30pm 24.3 WSW 4 7 - - 0.0 - - - - - - -
17/06:00pm 24.1 WSW 4 6 - - 0.0 - - - - - - -
17/05:30pm 24.1 WSW 4 6 - - 0.0 - - - - - - -
17/05:00pm 24.1 WSW 4 7 - - 0.0 - - - - - - -
17/04:30pm 24.1 SW 4 6 - - 0.0 - - - - - - -
17/04:00pm 23.4 WSW 6 8 - - 0.0 - - - - - - -
17/03:30pm 23.9 WSW 6 9 - - 0.0 - - - - - - -
17/03:00pm 23.7 SW 8 11 - - 0.0 - - - - - - -
17/02:30pm 23.2 WSW 8 11 - - 0.0 - - - - - - -
17/02:00pm 23.8 WSW 7 11 - - 0.0 - - - - - - -
17/01:30pm 22.6 WSW 6 9 - - 0.0 - - - - - - -
17/01:00pm 23.1 W 6 9 - - 0.0 - - - - - - -
17/12:30pm 22.9 WNW 4 8 - - 0.0 - - - - - - -

Other Formats:

Comma delimited format used in spreadsheet applications
http://www.bom.gov.au/fwo/IDS60701/IDS60701.94808.axf

JavaScript Object Notation format (JSON) in row-major order
http://www.bom.gov.au/fwo/IDS60701/IDS60701.94808.json